createdAt,value
2023-02-05T00:00:31.927Z,6.10
2023-02-05T00:03:20.105Z,6.00
2023-02-05T00:05:48.470Z,7.90
2023-02-05T00:08:16.793Z,7.10
2023-02-05T00:10:51.332Z,9.50
2023-02-05T00:13:19.872Z,7.40
2023-02-05T00:15:48.251Z,6.50
2023-02-05T00:18:16.674Z,6.40
2023-02-05T00:20:45.208Z,7.10
2023-02-05T00:23:13.818Z,7.20
2023-02-05T00:25:42.521Z,6.90
2023-02-05T00:28:10.890Z,5.70
2023-02-05T00:30:41.691Z,7.80
2023-02-05T00:33:10.280Z,6.70
2023-02-05T00:35:38.665Z,5.70
2023-02-05T00:38:06.839Z,5.20
2023-02-05T00:40:35.291Z,8.50
2023-02-05T00:43:03.731Z,10.70
2023-02-05T00:45:35.826Z,5.40
2023-02-05T00:48:05.852Z,5.30
2023-02-05T00:50:35.019Z,6.60
2023-02-05T00:53:02.944Z,6.60
2023-02-05T00:55:31.574Z,5.20
2023-02-05T00:58:01.445Z,5.00
2023-02-05T01:00:29.910Z,7.50
2023-02-05T01:02:58.085Z,7.50
2023-02-05T01:05:31.506Z,7.30
2023-02-05T01:07:59.834Z,5.80
2023-02-05T01:10:28.094Z,6.40
2023-02-05T01:12:56.904Z,7.00
2023-02-05T01:15:25.943Z,5.20
2023-02-05T01:17:54.245Z,5.20
2023-02-05T01:20:22.499Z,6.60
2023-02-05T01:22:50.657Z,6.60
2023-02-05T01:25:19.383Z,6.40
2023-02-05T01:27:47.978Z,5.00
2023-02-05T01:30:16.405Z,7.10
2023-02-05T01:32:44.589Z,6.90
2023-02-05T01:35:12.845Z,6.60
2023-02-05T01:37:41.147Z,6.20
2023-02-05T01:40:15.258Z,7.40
2023-02-05T01:42:44.095Z,7.90
2023-02-05T01:45:22.112Z,6.00
2023-02-05T01:48:03.015Z,5.80
2023-02-05T01:50:31.369Z,4.70
2023-02-05T01:53:06.168Z,7.10
2023-02-05T01:55:38.930Z,7.00
2023-02-05T01:58:07.436Z,8.00
2023-02-05T02:00:35.706Z,5.30
2023-02-05T02:03:04.627Z,6.00
2023-02-05T02:05:33.378Z,3.20
2023-02-05T02:08:02.803Z,6.10
2023-02-05T02:10:32.118Z,6.30
2023-02-05T02:13:01.621Z,5.00
2023-02-05T02:15:30.578Z,6.90
2023-02-05T02:18:22.460Z,5.30
2023-02-05T02:21:05.553Z,6.60
2023-02-05T02:24:11.280Z,7.00
2023-02-05T02:27:00.884Z,5.70
2023-02-05T02:29:52.842Z,5.30
2023-02-05T02:32:42.972Z,4.70
2023-02-05T02:35:16.228Z,4.20
2023-02-05T02:37:57.020Z,4.00
2023-02-05T02:40:50.110Z,5.70
2023-02-05T02:43:19.501Z,6.90
2023-02-05T02:46:00.841Z,6.90
2023-02-05T02:48:33.643Z,5.50
2023-02-05T02:51:05.466Z,4.20
2023-02-05T02:53:38.754Z,4.90
2023-02-05T02:56:11.280Z,4.50
2023-02-05T02:58:50.070Z,6.00
2023-02-05T03:01:22.790Z,5.80
2023-02-05T03:04:03.464Z,4.70
2023-02-05T03:06:33.835Z,5.30
2023-02-05T03:09:32.301Z,4.80
2023-02-05T03:12:00.899Z,4.90
2023-02-05T03:14:30.852Z,4.60
2023-02-05T03:17:00.069Z,4.30
2023-02-05T03:19:29.462Z,4.50
2023-02-05T03:22:02.889Z,5.30
2023-02-05T03:24:32.398Z,3.70
2023-02-05T03:27:01.106Z,3.80
2023-02-05T03:29:35.633Z,4.10
2023-02-05T03:32:13.231Z,4.70
2023-02-05T03:34:55.183Z,5.20
2023-02-05T03:38:08.501Z,6.00
2023-02-05T03:40:51.317Z,5.70
2023-02-05T03:43:30.606Z,3.90
2023-02-05T03:46:11.730Z,5.50
2023-02-05T03:49:02.980Z,6.20
2023-02-05T03:51:41.267Z,4.90
2023-02-05T03:54:29.507Z,5.00
2023-02-05T03:57:06.023Z,4.20
2023-02-05T03:59:38.700Z,4.60
2023-02-05T04:02:07.553Z,4.30
2023-02-05T04:04:39.399Z,3.70
2023-02-05T04:07:08.813Z,6.20
2023-02-05T04:09:37.951Z,6.00
2023-02-05T04:12:07.263Z,4.80
2023-02-05T04:14:35.761Z,4.80
2023-02-05T04:17:04.684Z,4.90
2023-02-05T04:19:32.861Z,4.30
2023-02-05T04:22:02.159Z,4.30
2023-02-05T04:24:32.158Z,6.20
2023-02-05T04:27:00.699Z,5.40
2023-02-05T04:29:28.912Z,3.70
2023-02-05T04:31:59.094Z,4.20
2023-02-05T04:34:27.535Z,5.90
2023-02-05T04:36:56.625Z,4.30
2023-02-05T04:39:26.804Z,5.30
2023-02-05T04:41:55.271Z,5.70
2023-02-05T04:44:23.918Z,4.60
2023-02-05T04:46:52.226Z,6.40
2023-02-05T04:49:20.813Z,1.90
2023-02-05T04:51:49.197Z,4.80
2023-02-05T04:54:17.950Z,4.50
2023-02-05T04:56:47.091Z,5.40
2023-02-05T04:59:15.728Z,7.30
2023-02-05T05:01:43.892Z,3.50
2023-02-05T05:04:12.601Z,5.70
2023-02-05T05:06:41.347Z,5.30
2023-02-05T05:09:09.841Z,4.30
2023-02-05T05:11:39.891Z,4.90
2023-02-05T05:14:08.520Z,4.90
2023-02-05T05:16:36.915Z,4.10
2023-02-05T05:19:05.644Z,5.00
2023-02-05T05:21:33.927Z,4.60
2023-02-05T05:24:02.051Z,5.90
2023-02-05T05:26:30.888Z,6.00
2023-02-05T05:28:59.539Z,4.80
2023-02-05T05:31:28.021Z,5.90
2023-02-05T05:33:56.029Z,7.50
2023-02-05T05:36:24.389Z,4.70
2023-02-05T05:38:52.914Z,4.90
2023-02-05T05:41:43.411Z,5.40
2023-02-05T05:44:11.985Z,4.70
2023-02-05T05:46:41.038Z,3.50
2023-02-05T05:49:09.534Z,5.00
2023-02-05T05:51:37.868Z,3.90
2023-02-05T05:54:05.964Z,5.80
2023-02-05T05:56:35.927Z,13.30
2023-02-05T05:59:04.642Z,6.20
2023-02-05T06:01:33.245Z,7.00
2023-02-05T06:04:03.952Z,4.60
2023-02-05T06:06:33.380Z,5.20
2023-02-05T06:09:02.286Z,4.20
2023-02-05T06:11:30.474Z,4.30
2023-02-05T06:13:58.967Z,8.30
2023-02-05T06:16:27.578Z,8.10
2023-02-05T06:18:56.481Z,6.40
2023-02-05T06:21:24.628Z,5.70
2023-02-05T06:23:52.897Z,6.00
2023-02-05T06:26:21.136Z,6.70
2023-02-05T06:28:49.337Z,6.60
2023-02-05T06:31:20.339Z,7.20
2023-02-05T06:33:48.478Z,7.40
2023-02-05T06:36:16.781Z,6.30
2023-02-05T06:38:45.516Z,6.80
2023-02-05T06:41:14.261Z,7.30
2023-02-05T06:43:43.337Z,5.70
2023-02-05T06:46:12.295Z,8.30
2023-02-05T06:48:40.963Z,5.80
2023-02-05T06:51:10.027Z,10.10
2023-02-05T06:53:38.626Z,5.70
2023-02-05T06:56:07.212Z,9.30
2023-02-05T06:58:35.676Z,5.80
2023-02-05T07:01:04.124Z,7.30
2023-02-05T07:03:33.642Z,5.30
2023-02-05T07:06:04.287Z,7.30
2023-02-05T07:08:34.188Z,6.00
2023-02-05T07:11:03.318Z,6.70
2023-02-05T07:13:32.482Z,9.20
2023-02-05T07:16:04.396Z,7.10
2023-02-05T07:18:34.352Z,7.90
2023-02-05T07:21:11.168Z,7.70
2023-02-05T07:23:41.007Z,8.20
2023-02-05T07:26:11.981Z,7.40
2023-02-05T07:28:41.476Z,7.30
2023-02-05T07:31:15.499Z,8.90
2023-02-05T07:33:45.132Z,7.60
2023-02-05T07:36:16.849Z,9.40
2023-02-05T07:38:47.377Z,8.60
2023-02-05T07:41:17.925Z,9.80
2023-02-05T07:43:47.515Z,9.40
2023-02-05T07:46:16.966Z,8.50
2023-02-05T07:48:46.395Z,7.70
2023-02-05T07:51:21.078Z,7.60
2023-02-05T07:53:51.510Z,10.10
2023-02-05T07:56:22.742Z,10.90
2023-02-05T07:58:51.606Z,9.90
2023-02-05T08:01:20.208Z,8.50
2023-02-05T08:03:49.033Z,10.60
2023-02-05T08:06:17.526Z,8.30
2023-02-05T08:08:45.579Z,10.60
2023-02-05T08:11:16.356Z,8.50
2023-02-05T08:13:46.018Z,9.30
2023-02-05T08:16:18.245Z,8.30
2023-02-05T08:18:51.083Z,12.00
2023-02-05T08:21:22.189Z,7.80
2023-02-05T08:23:51.161Z,9.70
2023-02-05T08:26:19.842Z,9.20
2023-02-05T08:28:48.640Z,7.40
2023-02-05T08:31:19.808Z,9.20
2023-02-05T08:33:51.088Z,9.60
2023-02-05T08:36:19.248Z,9.40
2023-02-05T08:38:47.920Z,8.90
2023-02-05T08:41:16.396Z,11.80
2023-02-05T08:43:47.248Z,9.60
2023-02-05T08:46:19.532Z,10.20
2023-02-05T08:48:49.301Z,8.00
2023-02-05T08:51:19.558Z,9.60
2023-02-05T08:53:48.863Z,9.90
2023-02-05T08:56:19.947Z,12.20
2023-02-05T08:58:49.355Z,11.00
2023-02-05T09:01:18.906Z,13.60
2023-02-05T09:03:47.270Z,12.30
2023-02-05T09:06:16.654Z,12.30
2023-02-05T09:08:45.121Z,12.40
2023-02-05T09:11:13.755Z,13.20
2023-02-05T09:13:42.796Z,11.40
2023-02-05T09:16:11.757Z,11.60
2023-02-05T09:18:40.860Z,12.00
2023-02-05T09:21:10.645Z,12.40
2023-02-05T09:23:40.318Z,10.60
2023-02-05T09:26:09.621Z,11.80
2023-02-05T09:28:38.714Z,14.30
2023-02-05T09:31:11.923Z,12.90
2023-02-05T09:33:40.783Z,12.50
2023-02-05T09:36:13.277Z,12.70
2023-02-05T09:38:41.946Z,13.10
2023-02-05T09:41:13.124Z,13.20
2023-02-05T09:44:12.226Z,11.00
2023-02-05T09:47:06.482Z,10.90
2023-02-05T09:50:02.692Z,9.10
2023-02-05T09:55:04.541Z,9.40
2023-02-05T09:57:39.797Z,10.70
2023-02-05T10:00:28.709Z,11.00
2023-02-05T10:03:12.421Z,10.80
2023-02-05T10:06:18.323Z,9.80
2023-02-05T10:08:57.998Z,13.20
2023-02-05T10:11:43.334Z,11.60
2023-02-05T10:14:14.420Z,9.00
2023-02-05T10:16:51.589Z,10.80
2023-02-05T10:19:44.838Z,10.30
2023-02-05T10:22:21.698Z,12.30
2023-02-05T10:25:08.855Z,12.20
2023-02-05T10:28:22.550Z,9.70
2023-02-05T10:31:08.244Z,8.90
2023-02-05T10:33:57.089Z,8.70
2023-02-05T10:36:27.654Z,8.00
2023-02-05T10:38:57.838Z,8.70
2023-02-05T10:41:39.926Z,13.00
2023-02-05T10:44:34.046Z,8.00
2023-02-05T10:47:37.221Z,10.60
2023-02-05T10:50:23.877Z,8.00
2023-02-05T10:52:52.161Z,10.20
2023-02-05T10:55:20.294Z,10.50
2023-02-05T10:57:49.038Z,10.70
2023-02-05T11:00:21.214Z,7.00
2023-02-05T11:02:52.697Z,9.50
2023-02-05T11:05:41.919Z,9.30
2023-02-05T11:08:42.688Z,8.30
2023-02-05T11:11:29.516Z,10.30
2023-02-05T11:14:02.081Z,8.20
2023-02-05T11:16:44.265Z,9.70
2023-02-05T11:19:24.107Z,7.80
2023-02-05T11:21:57.098Z,8.50
2023-02-05T11:24:39.959Z,8.80
2023-02-05T11:27:30.440Z,10.80
2023-02-05T11:30:51.805Z,10.00
2023-02-05T11:33:20.321Z,9.30
2023-02-05T11:36:00.007Z,7.90
2023-02-05T11:38:46.172Z,9.20
2023-02-05T11:41:30.177Z,11.50
2023-02-05T11:44:03.733Z,8.30
2023-02-05T11:46:38.071Z,8.30
2023-02-05T11:49:06.688Z,6.30
2023-02-05T11:51:35.314Z,5.80
2023-02-05T11:54:27.464Z,8.60
2023-02-05T11:57:14.176Z,7.30
2023-02-05T11:59:45.132Z,6.50
2023-02-05T12:02:29.468Z,7.70
2023-02-05T12:05:07.924Z,6.60
2023-02-05T12:08:03.032Z,9.00
2023-02-05T12:10:50.556Z,8.30
2023-02-05T12:13:45.678Z,9.20
2023-02-05T12:16:26.639Z,10.30
2023-02-05T12:19:07.968Z,8.40
2023-02-05T12:21:51.792Z,9.10
2023-02-05T12:24:41.383Z,10.00
2023-02-05T12:27:34.632Z,9.30
2023-02-05T12:30:40.283Z,8.80
2023-02-05T12:33:47.007Z,8.10
2023-02-05T12:37:09.863Z,7.20
2023-02-05T12:40:19.920Z,7.90
2023-02-05T12:43:06.836Z,6.30
2023-02-05T12:45:45.666Z,6.20
2023-02-05T12:48:26.551Z,6.00
2023-02-05T12:51:10.341Z,9.70
2023-02-05T12:53:59.775Z,8.60
2023-02-05T12:56:54.190Z,7.10
2023-02-05T12:59:36.902Z,6.50
2023-02-05T13:02:24.583Z,4.60
2023-02-05T13:05:14.531Z,7.10
2023-02-05T13:07:47.145Z,6.70
2023-02-05T13:10:24.501Z,3.50
2023-02-05T13:12:59.741Z,6.70
2023-02-05T13:15:35.593Z,5.70
2023-02-05T13:18:17.308Z,7.70
2023-02-05T13:21:12.620Z,6.90
2023-02-05T13:24:01.933Z,5.90
2023-02-05T13:27:00.351Z,5.70
2023-02-05T13:29:33.736Z,6.10
2023-02-05T13:32:16.827Z,7.30
2023-02-05T13:34:45.312Z,7.30
2023-02-05T13:37:53.054Z,6.30
2023-02-05T13:40:44.225Z,8.70
2023-02-05T13:43:27.716Z,4.80
2023-02-05T13:46:37.750Z,8.20
2023-02-05T13:49:34.693Z,7.90
2023-02-05T13:52:27.895Z,6.40
2023-02-05T13:55:18.680Z,8.20
2023-02-05T13:58:02.382Z,5.00
2023-02-05T14:00:31.738Z,5.90
2023-02-05T14:03:05.829Z,6.70
2023-02-05T14:05:41.467Z,7.80
2023-02-05T14:08:26.778Z,9.80
2023-02-05T14:11:03.728Z,8.70
2023-02-05T14:13:34.425Z,8.00
2023-02-05T14:16:24.489Z,7.80
2023-02-05T14:19:01.917Z,7.00
2023-02-05T14:21:30.280Z,8.80
2023-02-05T14:24:23.046Z,6.40
2023-02-05T14:26:57.740Z,13.20
2023-02-05T14:29:44.853Z,10.80
2023-02-05T14:32:42.886Z,11.60
2023-02-05T14:35:10.941Z,13.80
2023-02-05T14:37:42.763Z,9.30
2023-02-05T14:40:37.753Z,10.80
2023-02-05T14:43:23.548Z,8.70
2023-02-05T14:45:53.751Z,10.60
2023-02-05T14:48:27.854Z,17.20
2023-02-05T14:51:40.852Z,11.20
2023-02-05T14:54:15.168Z,11.70
2023-02-05T14:57:10.693Z,9.90
2023-02-05T14:59:52.314Z,13.30
2023-02-05T15:02:48.686Z,10.90
2023-02-05T15:05:30.297Z,11.00
2023-02-05T15:08:18.008Z,9.60
2023-02-05T15:10:54.867Z,13.00
2023-02-05T15:13:25.175Z,9.70
2023-02-05T15:16:12.158Z,13.00
2023-02-05T15:18:45.406Z,11.30
2023-02-05T15:21:16.442Z,10.20
2023-02-05T15:23:47.278Z,11.70
2023-02-05T15:26:24.599Z,8.60
2023-02-05T15:28:59.992Z,11.40
2023-02-05T15:31:51.262Z,12.50
2023-02-05T15:34:38.056Z,11.20
2023-02-05T15:37:09.294Z,9.10
2023-02-05T15:39:51.190Z,12.60
2023-02-05T15:42:41.176Z,13.90
2023-02-05T15:45:27.112Z,11.50
2023-02-05T15:48:10.390Z,13.40
2023-02-05T15:50:54.542Z,11.60
2023-02-05T15:53:43.313Z,13.00
2023-02-05T15:56:18.810Z,13.00
2023-02-05T15:59:00.434Z,13.40
2023-02-05T16:01:30.470Z,16.60
2023-02-05T16:03:59.022Z,17.10
2023-02-05T16:06:29.691Z,12.40
2023-02-05T16:08:58.006Z,12.60
2023-02-05T16:11:32.263Z,13.70
2023-02-05T16:16:39.877Z,16.90
2023-02-05T16:19:15.899Z,13.80
2023-02-05T16:21:51.888Z,15.80
2023-02-05T16:24:33.748Z,5.90
2023-02-05T16:27:28.318Z,14.30
2023-02-05T16:29:59.684Z,18.40
2023-02-05T16:32:36.597Z,17.90
2023-02-05T16:35:08.545Z,14.70
2023-02-05T16:37:36.872Z,16.10
2023-02-05T16:40:07.767Z,13.20
2023-02-05T16:42:43.347Z,11.00
2023-02-05T16:48:25.544Z,13.10
2023-02-05T16:53:26.709Z,17.20
2023-02-05T16:56:13.272Z,18.20
2023-02-05T16:58:51.921Z,21.50
2023-02-05T17:01:37.531Z,20.60
2023-02-05T17:04:06.704Z,20.00
2023-02-05T17:06:37.761Z,22.10
2023-02-05T17:09:06.608Z,21.40
2023-02-05T17:11:38.574Z,21.20
2023-02-05T17:14:33.296Z,16.00
2023-02-05T17:17:07.726Z,18.90
2023-02-05T17:19:39.373Z,16.30
2023-02-05T17:22:13.778Z,14.80
2023-02-05T17:24:51.913Z,16.90
2023-02-05T17:27:30.838Z,21.20
2023-02-05T17:30:00.220Z,14.30
2023-02-05T17:32:30.392Z,14.30
2023-02-05T17:35:00.028Z,15.30
2023-02-05T17:37:28.338Z,13.70
2023-02-05T17:39:58.049Z,14.80
2023-02-05T17:42:27.206Z,19.20
2023-02-05T17:44:56.396Z,17.70
2023-02-05T17:47:24.511Z,16.50
2023-02-05T17:49:52.671Z,17.40
2023-02-05T17:52:20.921Z,14.50
2023-02-05T17:54:48.979Z,20.20
2023-02-05T17:57:20.175Z,17.60
2023-02-05T17:59:49.529Z,19.20
2023-02-05T18:02:18.309Z,18.60
2023-02-05T18:04:47.154Z,18.10
2023-02-05T18:07:33.163Z,18.60
2023-02-05T18:10:03.751Z,16.70
2023-02-05T18:12:33.636Z,14.90
2023-02-05T18:15:02.178Z,17.80
2023-02-05T18:17:30.453Z,16.70
2023-02-05T18:19:58.692Z,14.30
2023-02-05T18:22:26.998Z,15.80
2023-02-05T18:24:54.949Z,15.80
2023-02-05T18:27:23.380Z,14.30
2023-02-05T18:29:51.944Z,19.20
2023-02-05T18:32:20.058Z,16.50
2023-02-05T18:34:48.438Z,15.30
2023-02-05T18:37:17.043Z,17.90
2023-02-05T18:39:45.924Z,16.10
2023-02-05T18:42:14.819Z,19.40
2023-02-05T18:44:43.358Z,15.70
2023-02-05T18:47:13.095Z,18.30
2023-02-05T18:49:42.983Z,18.70
2023-02-05T18:52:12.162Z,18.20
2023-02-05T18:54:40.966Z,17.20
2023-02-05T18:57:09.048Z,17.40
2023-02-05T18:59:38.280Z,15.00
2023-02-05T19:02:09.910Z,17.20
2023-02-05T19:04:39.074Z,13.30
2023-02-05T19:07:08.554Z,14.90
2023-02-05T19:09:36.691Z,17.80
2023-02-05T19:12:05.088Z,15.40
2023-02-05T19:14:33.720Z,15.80
2023-02-05T19:17:01.890Z,17.90
2023-02-05T19:19:31.523Z,14.60
2023-02-05T19:22:02.102Z,19.10
2023-02-05T19:24:31.611Z,15.90
2023-02-05T19:27:00.214Z,15.70
2023-02-05T19:29:28.901Z,15.50
2023-02-05T19:31:58.889Z,14.60
2023-02-05T19:34:28.072Z,13.80
2023-02-05T19:36:56.314Z,16.70
2023-02-05T19:39:24.493Z,16.80
2023-02-05T19:41:53.060Z,16.30
2023-02-05T19:44:22.136Z,14.10
2023-02-05T19:46:51.161Z,12.50
2023-02-05T19:49:21.743Z,12.50
2023-02-05T19:51:54.492Z,13.30
2023-02-05T19:54:23.530Z,11.80
2023-02-05T19:56:52.061Z,16.20
2023-02-05T19:59:21.316Z,13.10
2023-02-05T20:01:50.024Z,12.70
2023-02-05T20:04:22.512Z,11.00
2023-02-05T20:06:55.695Z,11.10
2023-02-05T20:09:24.378Z,14.40
2023-02-05T20:11:53.480Z,13.70
2023-02-05T20:14:22.295Z,13.10
2023-02-05T20:16:52.181Z,11.20
2023-02-05T20:19:21.366Z,10.50
2023-02-05T20:21:49.905Z,10.30
2023-02-05T20:24:18.131Z,12.50
2023-02-05T20:26:50.220Z,11.40
2023-02-05T20:29:36.911Z,13.20
2023-02-05T20:32:05.835Z,15.00
2023-02-05T20:34:36.129Z,16.00
2023-02-05T20:37:07.503Z,13.90
2023-02-05T20:39:44.605Z,14.80
2023-02-05T20:42:17.338Z,10.50
2023-02-05T20:44:45.518Z,12.60
2023-02-05T20:47:15.125Z,12.10
2023-02-05T20:49:43.464Z,12.30
2023-02-05T20:52:12.162Z,9.70
2023-02-05T20:54:40.389Z,12.40
2023-02-05T20:57:09.617Z,11.90
2023-02-05T20:59:38.776Z,9.90
2023-02-05T21:02:07.121Z,9.60
2023-02-05T21:04:36.629Z,13.90
2023-02-05T21:07:05.387Z,11.40
2023-02-05T21:09:34.831Z,14.60
2023-02-05T21:12:03.607Z,14.00
2023-02-05T21:14:32.246Z,15.70
2023-02-05T21:17:00.524Z,13.10
2023-02-05T21:19:28.834Z,13.90
2023-02-05T21:21:58.301Z,13.50
2023-02-05T21:24:26.990Z,17.30
2023-02-05T21:26:55.472Z,16.50
2023-02-05T21:29:23.761Z,13.70
2023-02-05T21:31:55.767Z,17.10
2023-02-05T21:34:27.777Z,12.00
2023-02-05T21:36:56.753Z,14.50
2023-02-05T21:39:25.775Z,13.60
2023-02-05T21:41:54.513Z,14.60
2023-02-05T21:44:24.370Z,11.30
2023-02-05T21:46:55.420Z,16.60
2023-02-05T21:49:24.567Z,13.10
2023-02-05T21:51:53.583Z,11.60
2023-02-05T21:54:25.808Z,17.00
2023-02-05T21:56:54.964Z,15.90
2023-02-05T21:59:24.129Z,16.80
2023-02-05T22:01:52.496Z,15.90
2023-02-05T22:04:21.001Z,14.70
2023-02-05T22:06:50.953Z,12.00
2023-02-05T22:09:19.400Z,12.50
2023-02-05T22:11:49.542Z,12.50
2023-02-05T22:14:18.330Z,12.30
2023-02-05T22:16:46.444Z,11.20
2023-02-05T22:19:14.716Z,11.90
2023-02-05T22:21:43.812Z,10.00
2023-02-05T22:24:17.068Z,10.80
2023-02-05T22:26:46.840Z,11.40
2023-02-05T22:29:19.188Z,11.70
2023-02-05T22:31:57.087Z,9.80
2023-02-05T22:34:25.435Z,13.50
2023-02-05T22:36:53.703Z,10.00
2023-02-05T22:39:22.309Z,12.20
2023-02-05T22:41:50.586Z,10.10
2023-02-05T22:44:18.850Z,10.80
2023-02-05T22:46:47.318Z,12.30
2023-02-05T22:49:15.785Z,12.60
2023-02-05T22:51:45.432Z,14.70
2023-02-05T22:54:15.450Z,14.10
2023-02-05T22:56:44.742Z,13.40
2023-02-05T22:59:13.646Z,14.10
2023-02-05T23:01:41.901Z,13.00
2023-02-05T23:04:10.740Z,11.00
2023-02-05T23:06:42.424Z,16.50
2023-02-05T23:09:14.918Z,15.90
2023-02-05T23:11:44.658Z,21.40
2023-02-05T23:14:15.491Z,16.90
2023-02-05T23:16:46.021Z,27.60
2023-02-05T23:19:18.773Z,25.10
2023-02-05T23:21:48.285Z,22.60
2023-02-05T23:24:17.969Z,22.30
2023-02-05T23:26:50.916Z,22.40
2023-02-05T23:29:19.732Z,17.40
2023-02-05T23:31:48.382Z,23.30
2023-02-05T23:34:16.660Z,17.60
2023-02-05T23:36:44.807Z,14.80
2023-02-05T23:39:12.995Z,15.40
2023-02-05T23:41:41.484Z,13.00
2023-02-05T23:44:12.893Z,15.70
2023-02-05T23:46:42.786Z,14.10
2023-02-05T23:49:12.245Z,12.30
2023-02-05T23:51:41.354Z,11.30
2023-02-05T23:54:11.548Z,12.60
2023-02-05T23:56:41.082Z,11.30
2023-02-05T23:59:11.138Z,12.10
